Kampville Court, Missouri
Current Conditions -  °F | °C
As of 11:54 PM on Tuesday 27 Jan 2015 (Local Time) from KSET Reporting Station
Haze Haze  
Wind Chill: 22°   Ceiling: Unl
Heat Index: 28°   Visibility: 5mi
Dew Point: 26°   Wind: 6mph
Humidity: 92%   Direction: 100°E
Pressure: 30.25"   Gusts: NA
Location:  38.8615°N, 90.4548°W
Report Text: KSET 280554Z AUTO 10005KT 5SM BR CLR M02/M03 A3025 RMK AO2 SLP247 T10221033 10006 21028 400671028 53004
Loading
Personal Weather Stations






























Interactive Weather Map New forecast layout! Learn more

10-Day Weather Forecast

Advertisements
Track Severe Weather on mobile